Donner Trail Elementary, Kingvale, California Weather observations

Data are for observation ending at time listed.
 Day   Time    Ave.   Ave.  Ave.  Vector   Max.   Stn.    Total    Solar   Ave.   Snow 
  of    of     Air    Rel.  Wind   Wind    Wind   Baro.  Precip.   Rad.    Soil   Depth
Year   Day     Temp.  Hum.  Speed  Dir.    Gust   Pres.                    Temp.       
2014   (PST)    F      %     mph   deg.    mph     mb.     in.     W/m2     F      in. 
---------------------------------------------------------------------------------------  
 209    8:40   68.5    23    6.3   106      6.3   822.1    0.00     619    999.0  212.2
 209    8:50   69.8    19    6.3    74      6.3   822.1    0.00     694    999.0  212.2
 209    9:00   70.9    17    6.3   149      6.3   822.1    0.00     781    999.0  212.2
 209    9:10   71.3    16    6.3   146      6.3   822.1    0.00     782    999.0  212.2
 209    9:20   72.1    16    6.3   307      6.3   822.1    0.00     833    999.0  212.2
 209    9:30   72.3    18    6.3    15      6.3   822.0    0.00     789    999.0  212.2
 209    9:40   72.3    20    6.3    78      6.3   822.1    0.00     822    999.0  212.2
 209    9:50   72.4    19    6.3   117      6.3   822.1    0.00     865    999.0  212.2
 209   10:00   72.1    19    6.3    49      6.3   822.1    0.00     841    999.0  212.2
 209   10:10   72.3    19    6.3    45      6.3   822.2    0.00     897    999.0  212.2
 209   10:20   72.3    18    6.3    78      6.3   822.2    0.00     799    999.0  212.2
 209   10:30   72.2    18    6.3    77      6.3   822.2    0.00     819    999.0  212.2
 209   10:40   72.4    18    6.3    64      6.3   822.3    0.00     845    999.0  212.2
 209   10:50   72.5    19    6.3    60      6.3   822.3    0.00     860    999.0  212.2
 209   11:00   73.6    18    6.3    83      6.3   822.4    0.00     767    999.0  212.2
 209   11:10   73.1    19    6.3    54      6.3   822.4    0.00     581    999.0  212.2
 209   11:20   72.1    20    6.3    82      6.3   822.3    0.00     791    999.0  212.2
 209   11:30   73.2    20    6.3    56      6.3   822.4    0.00     971    999.0  212.2
 209   11:40   73.3    20    6.3    57      6.3   822.3    0.00     866    999.0  212.2
 209   11:50   72.8    20    6.3    49      6.3   822.3    0.00     814    999.0  212.2
 209   12:00   72.4    20    6.3    78      6.3   822.2    0.00     828    999.0  212.2
 209   12:10   71.7    20    6.3    63      6.3   822.2    0.00     470    999.0  212.2
 209   12:20   70.5    22    6.3    85      6.3   822.2    0.00     502    999.0  212.2
 209   12:30   72.3    20    6.3    59      6.3   822.1    0.00    1054    999.0  212.2
 209   12:40   73.5    19    6.3    54      6.3   822.2    0.00     900    999.0  212.2
 209   12:50   73.2    20    6.3    50      6.3   822.2    0.00     762    999.0  212.2
 209   13:00   73.3    20    6.3    64      6.3   822.2    0.00     895    999.0  212.2
 209   13:10   73.1    20    6.3    73      6.3   822.3    0.00     781    999.0  212.2
 209   13:20   72.9    20    6.3    59      6.3   822.2    0.00     673    999.0  212.2
 209   13:30   72.4    20    6.3    58      6.3   822.1    0.00     730    999.0  212.2
 209   13:40   73.3    20    6.3    91      6.3   822.0    0.00     691    999.0  212.2
 209   13:50   73.6    20    6.3    46      6.3   821.9    0.00     815    999.0  212.2
 209   14:00   73.7    21    6.3    97      6.3   822.0    0.00     741    999.0  212.2
 209   14:10   73.1    22    6.3    85      6.3   821.9    0.00     688    999.0  212.2
 209   14:20   72.8    23    6.3    48      6.3   822.0    0.00     706    999.0  212.2
 209   14:30   73.0    23    6.3    69      6.3   822.0    0.00     505    999.0  212.2
 209   14:40   72.1    24    6.3   106      6.3   821.9    0.00     418    999.0  212.2
 209   14:50   71.3    24    6.3    53      6.3   821.9    0.00     538    999.0  212.2
 209   15:00   73.5    23    6.3   124      6.3   821.9    0.00     631    999.0  212.2
 209   15:10   71.3    24    6.3    54      6.3   821.8    0.00     219    999.0  212.2
 209   15:20   69.3    26    6.3    92      6.3   821.9    0.00     223    999.0  212.2
 209   15:30   70.7    25    6.3   106      6.3   821.9    0.00     503    999.0  212.2
 209   15:40   71.3    25    6.3    92      6.3   821.9    0.00     431    999.0  212.2
 209   15:50   71.1    25    6.3    80      6.3   821.9    0.00     488    999.0  212.2
 209   16:00   71.6    24    6.3    82      6.3   821.9    0.00     527    999.0  212.2
 209   16:10   71.5    24    6.3    58      6.3   821.8    0.00     478    999.0  212.2
 209   16:20   70.8    25    6.3    92      6.3   821.8    0.00     427    999.0  212.2
 209   16:30   71.7    24    6.3    68      6.3   821.7    0.00     381    999.0  212.2
 209   16:40   71.4    24    6.3    81      6.3   821.7    0.00     359    999.0  212.2
 209   16:50   69.5    26    6.3    41      6.3   821.7    0.00     280    999.0  212.2
 209   17:00   69.2    26    6.3    56      6.3   821.8    0.00     232    999.0  212.2
 209   17:10   67.9    27    6.3    68      6.3   821.8    0.00     151    999.0  212.2
 209   17:20   67.1    28    6.3   104      6.3   821.9    0.00     123    999.0  212.2
 209   17:30   66.1    29    6.3   103      6.3   822.0    0.00      69    999.0  212.2
 209   17:40   65.2    29    6.3    78      6.3   822.1    0.00      69    999.0  212.2
 209   17:50   64.5    30    6.3    77      6.3   822.2    0.00      64    999.0  212.2
 209   18:00   64.1    30    6.3    64      6.3   822.2    0.00      14    999.0  212.2
 209   18:10   63.7    30    6.3    90      6.3   822.2    0.00       0    999.0  212.2
 209   18:20   63.2    31    6.3   102      6.3   822.2    0.00       0    999.0  212.2
 209   18:30   62.7    32    6.3    58      6.3   822.3    0.00       0    999.0  212.2
 209   18:40   62.3    31    6.3    84      6.3   822.3    0.00       0    999.0  212.2
 209   18:50   61.9    31    6.3    83      6.3   822.4    0.00       0    999.0  212.2
 209   19:00   61.4    33    6.3    86      6.3   822.5    0.00       0    999.0  212.2
 209   19:10   60.7    34    6.3    16      6.3   822.6    0.00       0    999.0  212.2
 209   19:20   60.0    35    6.3    98      6.3   822.6    0.00       0    999.0  212.2
 209   19:30   59.1    37    6.3    90      6.3   822.7    0.00       0    999.0  212.2
 209   19:40   58.1    39    6.3    76      6.3   822.8    0.00       0    999.0  212.2
 209   19:50   57.5    40    6.3    69      6.3   822.9    0.00       0    999.0  212.2
 209   20:00   56.8    41    6.3    69      6.3   823.0    0.00       0    999.0  212.2
 209   20:10   56.4    45    6.3    69      6.3   823.0    0.00       0    999.0  212.2
 209   20:20   56.1    44    6.3    41      6.3   822.9    0.00       0    999.0  212.2
 209   20:30   55.8    47    6.3   260      6.3   822.9    0.00       0    999.0  212.2
 209   20:40   55.2    48    6.3   260      6.3   823.0    0.00       0    999.0  212.2
 209   20:50   54.5    50    6.3   272      6.3   822.9    0.00       0    999.0  212.2
 209   21:00   53.9    52    6.3   277      6.3   822.9    0.00       0    999.0  212.2
 209   21:10   53.3    51    6.3   279      6.3   823.0    0.00       0    999.0  212.2
 209   21:20   52.6    51    6.3   282      6.3   822.9    0.00       0    999.0  212.2
 209   21:30   52.0    53    6.3   282      6.3   822.9    0.00       0    999.0  212.2
 209   21:40   51.6    54    6.3   320      6.3   822.8    0.00       0    999.0  212.2
 209   21:50   51.2    55    6.3   353      6.3   822.8    0.00       0    999.0  212.2
 209   22:00   50.8    54    6.3   329      6.3   822.9    0.00       0    999.0  212.2
 209   22:10   50.5    55    6.3   315      6.3   822.9    0.00       0    999.0  212.2
 209   22:20   50.2    56    6.3   314      6.3   822.9    0.00       0    999.0  212.2
 209   22:30   49.8    57    6.3   298      6.3   822.9    0.00       0    999.0  212.2
 209   22:40   49.6    58    6.3   278      6.3   822.8    0.00       0    999.0  212.2
 209   22:50   49.2    58    6.3   293      6.3   822.8    0.00       0    999.0  212.2
 209   23:00   48.8    59    6.3   300      6.3   822.8    0.00       0    999.0  212.2
 209   23:10   48.7    59    6.3   280      6.3   822.8    0.00       0    999.0  212.2
 209   23:20   48.5    60    6.3   284      6.3   822.7    0.00       0    999.0  212.2
 209   23:30   48.3    60    6.3   319      6.3   822.6    0.00       0    999.0  212.2
 209   23:40   48.2    60    6.3   319      6.3   822.6    0.00       0    999.0  212.2
 209   23:50   48.2    60    6.3   309      6.3   822.5    0.00       0    999.0  212.2
 210    0:00   48.1    59    6.3   302      6.3   822.5    0.00       0    999.0  212.2
 210    0:10   48.2    59    6.3   302      6.3   822.4    0.00       0    999.0  212.2
 210    0:20   48.3    60    6.3   290      6.3   822.3    0.00       0    999.0  212.2
 210    0:30   48.5    60    6.3   290      6.3   822.3    0.00       0    999.0  212.2
 210    0:40   48.7    61    6.3   241      6.3   822.3    0.00       0    999.0  212.2
 210    0:50   48.7    60    6.3   211      6.3   822.3    0.00       0    999.0  212.2
 210    1:00   48.9    60    6.3   243      6.3   822.4    0.00       0    999.0  212.2
 210    1:10   49.2    59    6.3   247      6.3   822.3    0.00       0    999.0  212.2
 210    1:20   49.4    59    6.3   253      6.3   822.3    0.00       0    999.0  212.2
 210    1:30   49.4    58    6.3   300      6.3   822.3    0.00       0    999.0  212.2
 210    1:40   49.5    59    6.3   266      6.3   822.3    0.00       0    999.0  212.2
 210    1:50   49.6    59    6.3   262      6.3   822.3    0.00       0    999.0  212.2
 210    2:00   49.7    59    6.3   262      6.3   822.3    0.00       0    999.0  212.2
 210    2:10   49.7    58    6.3   262      6.3   822.3    0.00       0    999.0  212.2
 210    2:20   49.8    58    6.3   262      6.3   822.4    0.00       0    999.0  212.2
 210    2:30   49.8    58    6.3   262      6.3   822.5    0.00       0    999.0  212.2
 210    2:40   49.7    58    6.3   284      6.3   822.6    0.00       0    999.0  212.2
 210    2:50   49.8    59    6.3   290      6.3   822.6    0.00       0    999.0  212.2
 210    3:00   49.8    58    6.3   276      6.3   822.6    0.00       0    999.0  212.2
 210    3:10   49.8    58    6.3   271      6.3   822.5    0.00       0    999.0  212.2
 210    3:20   49.7    59    6.3   278      6.3   822.5    0.00       0    999.0  212.2
 210    3:30   49.6    59    6.3   262      6.3   822.5    0.00       0    999.0  212.2
 210    3:40   49.5    60    6.3   262      6.3   822.3    0.00       0    999.0  212.2
 210    3:50   49.2    60    6.3   275      6.3   822.3    0.00       0    999.0  212.2
 210    4:00   49.2    60    6.3   326      6.3   822.2    0.00       0    999.0  212.2
 210    4:10   49.1    62    6.3   250      6.3   822.2    0.00       0    999.0  212.2
 210    4:20   48.7    62    6.3   257      6.3   822.2    0.00       0    999.0  212.2
 210    4:30   48.2    63    6.3   273      6.3   822.4    0.00       0    999.0  212.2
 210    4:40   47.7    64    6.3   276      6.3   822.4    0.00       0    999.0  212.2
 210    4:50   47.2    65    6.3   260      6.3   822.5    0.00       0    999.0  212.2
 210    5:00   46.7    64    6.3   268      6.3   822.5    0.00       0    999.0  212.2
 210    5:10   46.4    64    6.3   279      6.3   822.5    0.00       9    999.0  212.2
 210    5:20   46.2    64    6.3   278      6.3   822.5    0.00      46    999.0  212.2
 210    5:30   46.5    67    6.3   257      6.3   822.5    0.00      69    999.0  212.2
 210    5:40   47.2    66    6.3   253      6.3   822.6    0.00     135    999.0  212.2
 210    5:50   48.5    63    6.3   257      6.3   822.6    0.00     134    999.0  212.2
 210    6:00   49.4    66    6.3   243      6.3   822.6    0.00      69    999.0  212.2
 210    6:10   49.8    65    6.3   243      6.3   822.6    0.00      69    999.0  212.2
 210    6:20   50.0    65    6.3   243      6.3   822.6    0.00      69    999.0  212.2
 210    6:30   50.6    66    6.3   243      6.3   822.7    0.00      77    999.0  212.2
 210    6:40   51.4    67    6.3   246      6.3   822.7    0.00     125    999.0  212.2
 210    6:50   52.4    61    6.3   268      6.3   822.6    0.00     179    999.0  212.2
 210    7:00   53.5    60    6.3   254      6.3   822.6    0.00     219    999.0  212.2
 210    7:10   54.7    58    6.3   264      6.3   822.6    0.00     150    999.0  212.2
 210    7:20   55.6    56    6.3   269      6.3   822.6    0.00     171    999.0  212.2
 210    7:30   56.4    55    6.3   287      6.3   822.6    0.00     247    999.0  212.2
 210    7:40   57.4    50    6.3   338      6.3   822.5    0.00     362    999.0  212.2
 210    7:50   58.9    49    6.3   288      6.3   822.6    0.00     270    999.0  212.2
 210    8:00   60.4    45    6.3   300      6.3   822.5    0.00     623    999.0  212.2
 210    8:10   62.0    37    6.3   247      6.3   822.5    0.00     207    999.0  212.2
 210    8:20   61.5    44    6.3   177      6.3   822.4    0.00     207    999.0  212.2
 210    8:30   61.3    46    6.3   151      6.3   822.5    0.00     207    999.0  212.2

Return to Donner Trail Elementary graphs page.


Western Regional Climate Center,wrcc@dri.edu